sensor_id;sensor_type;location;lat;lon;timestamp;pressure;altitude;pressure_sealevel;temperature;humidity
70133;BME280;57495;49.922;7.966;2023-05-22T00:01:30;99566.06;;;18.64;87.29
70133;BME280;57495;49.922;7.966;2023-05-22T00:03:31;99569.16;;;18.61;87.67
70133;BME280;57495;49.922;7.966;2023-05-22T00:05:33;99573.75;;;18.74;87.32
70133;BME280;57495;49.922;7.966;2023-05-22T00:07:38;99572.09;;;18.66;87.36
70133;BME280;57495;49.922;7.966;2023-05-22T00:09:39;99572.09;;;18.66;87.59
70133;BME280;57495;49.922;7.966;2023-05-22T00:11:42;99577.50;;;18.60;87.54
70133;BME280;57495;49.922;7.966;2023-05-22T00:13:43;99569.56;;;18.58;88.01
70133;BME280;57495;49.922;7.966;2023-05-22T00:15:45;99568.75;;;18.58;88.28
70133;BME280;57495;49.922;7.966;2023-05-22T00:18:11;99566.84;;;18.58;88.49
70133;BME280;57495;49.922;7.966;2023-05-22T00:20:12;99564.16;;;18.51;88.62
70133;BME280;57495;49.922;7.966;2023-05-22T00:22:14;99561.44;;;18.45;87.67
70133;BME280;57495;49.922;7.966;2023-05-22T00:24:15;99558.69;;;18.31;87.60
70133;BME280;57495;49.922;7.966;2023-05-22T00:26:17;99560.75;;;18.23;87.07
70133;BME280;57495;49.922;7.966;2023-05-22T00:28:20;99562.25;;;18.25;87.92
70133;BME280;57495;49.922;7.966;2023-05-22T00:30:22;99566.19;;;18.29;87.71
70133;BME280;57495;49.922;7.966;2023-05-22T00:32:23;99552.03;;;18.27;87.48
70133;BME280;57495;49.922;7.966;2023-05-22T00:34:25;99558.47;;;18.26;87.33
70133;BME280;57495;49.922;7.966;2023-05-22T00:36:26;99554.50;;;18.22;87.52
70133;BME280;57495;49.922;7.966;2023-05-22T00:38:29;99557.41;;;18.14;88.34
70133;BME280;57495;49.922;7.966;2023-05-22T00:40:31;99551.16;;;18.13;88.29
70133;BME280;57495;49.922;7.966;2023-05-22T00:42:32;99555.53;;;18.14;87.86
70133;BME280;57495;49.922;7.966;2023-05-22T00:44:35;99553.25;;;18.18;88.73
70133;BME280;57495;49.922;7.966;2023-05-22T00:46:37;99552.63;;;18.16;89.05
70133;BME280;57495;49.922;7.966;2023-05-22T00:48:38;99552.38;;;17.98;89.09
70133;BME280;57495;49.922;7.966;2023-05-22T00:50:40;99555.22;;;17.89;90.33
70133;BME280;57495;49.922;7.966;2023-05-22T00:52:44;99546.91;;;17.91;89.88
70133;BME280;57495;49.922;7.966;2023-05-22T00:54:47;99553.16;;;17.91;90.45
70133;BME280;57495;49.922;7.966;2023-05-22T00:56:50;99553.72;;;17.80;90.47
70133;BME280;57495;49.922;7.966;2023-05-22T00:58:52;99555.53;;;17.73;93.26
70133;BME280;57495;49.922;7.966;2023-05-22T01:00:55;99551.44;;;17.77;93.42
70133;BME280;57495;49.922;7.966;2023-05-22T01:02:56;99555.13;;;17.69;93.35
70133;BME280;57495;49.922;7.966;2023-05-22T01:04:58;99550.94;;;17.67;92.87
70133;BME280;57495;49.922;7.966;2023-05-22T01:07:00;99555.34;;;17.68;91.93
70133;BME280;57495;49.922;7.966;2023-05-22T01:09:02;99552.59;;;17.61;90.36
70133;BME280;57495;49.922;7.966;2023-05-22T01:11:17;99552.19;;;17.64;92.38
70133;BME280;57495;49.922;7.966;2023-05-22T01:13:27;99554.84;;;17.57;91.85
70133;BME280;57495;49.922;7.966;2023-05-22T01:15:34;99564.84;;;17.57;90.28
70133;BME280;57495;49.922;7.966;2023-05-22T01:17:49;99559.63;;;17.55;91.68
70133;BME280;57495;49.922;7.966;2023-05-22T01:20:03;99564.66;;;17.58;94.33
70133;BME280;57495;49.922;7.966;2023-05-22T01:22:19;99560.66;;;17.54;97.14
70133;BME280;57495;49.922;7.966;2023-05-22T01:24:51;99558.03;;;17.68;96.53
70133;BME280;57495;49.922;7.966;2023-05-22T01:27:21;99562.00;;;17.72;95.27
70133;BME280;57495;49.922;7.966;2023-05-22T01:29:41;99551.19;;;17.72;93.77
70133;BME280;57495;49.922;7.966;2023-05-22T01:31:47;99553.06;;;17.71;94.06
70133;BME280;57495;49.922;7.966;2023-05-22T01:33:53;99560.31;;;17.71;94.80
70133;BME280;57495;49.922;7.966;2023-05-22T01:35:56;99560.75;;;17.68;93.13
70133;BME280;57495;49.922;7.966;2023-05-22T01:38:01;99566.78;;;17.70;92.67
70133;BME280;57495;49.922;7.966;2023-05-22T01:40:04;99567.56;;;17.64;92.41
70133;BME280;57495;49.922;7.966;2023-05-22T01:42:07;99567.25;;;17.45;94.99
70133;BME280;57495;49.922;7.966;2023-05-22T01:44:08;99568.13;;;17.52;95.43
70133;BME280;57495;49.922;7.966;2023-05-22T01:46:09;99562.50;;;17.47;93.17
70133;BME280;57495;49.922;7.966;2023-05-22T01:48:12;99563.66;;;17.31;93.46
70133;BME280;57495;49.922;7.966;2023-05-22T01:50:14;99567.81;;;17.34;92.09
70133;BME280;57495;49.922;7.966;2023-05-22T01:52:19;99565.75;;;17.36;92.08
70133;BME280;57495;49.922;7.966;2023-05-22T01:54:28;99569.94;;;17.38;92.73
70133;BME280;57495;49.922;7.966;2023-05-22T01:56:34;99561.13;;;17.30;91.93
70133;BME280;57495;49.922;7.966;2023-05-22T01:58:43;99568.34;;;17.23;93.55
70133;BME280;57495;49.922;7.966;2023-05-22T02:00:45;99566.94;;;17.27;94.42
70133;BME280;57495;49.922;7.966;2023-05-22T02:02:52;99564.88;;;17.29;95.10
70133;BME280;57495;49.922;7.966;2023-05-22T02:04:59;99560.94;;;17.31;95.57
70133;BME280;57495;49.922;7.966;2023-05-22T02:07:01;99563.59;;;17.25;99.33
70133;BME280;57495;49.922;7.966;2023-05-22T02:09:04;99566.06;;;17.19;98.12
70133;BME280;57495;49.922;7.966;2023-05-22T02:11:09;99561.09;;;17.23;95.57
70133;BME280;57495;49.922;7.966;2023-05-22T02:13:11;99560.72;;;16.98;95.33
70133;BME280;57495;49.922;7.966;2023-05-22T02:15:13;99567.00;;;17.05;94.26
70133;BME280;57495;49.922;7.966;2023-05-22T02:17:14;99562.13;;;16.94;93.73
70133;BME280;57495;49.922;7.966;2023-05-22T02:19:22;99559.25;;;16.95;94.44
70133;BME280;57495;49.922;7.966;2023-05-22T02:21:25;99565.09;;;16.99;94.95
70133;BME280;57495;49.922;7.966;2023-05-22T02:23:26;99561.72;;;16.97;94.33
70133;BME280;57495;49.922;7.966;2023-05-22T02:25:28;99561.06;;;16.88;94.68
70133;BME280;57495;49.922;7.966;2023-05-22T02:27:30;99564.69;;;16.80;95.96
70133;BME280;57495;49.922;7.966;2023-05-22T02:29:31;99562.00;;;16.80;96.17
70133;BME280;57495;49.922;7.966;2023-05-22T02:31:33;99561.09;;;16.73;97.26
70133;BME280;57495;49.922;7.966;2023-05-22T02:33:34;99566.50;;;16.73;97.35
70133;BME280;57495;49.922;7.966;2023-05-22T02:35:35;99564.81;;;16.72;96.94
70133;BME280;57495;49.922;7.966;2023-05-22T02:37:38;99562.38;;;16.77;96.04
70133;BME280;57495;49.922;7.966;2023-05-22T02:39:40;99564.13;;;16.85;95.96
70133;BME280;57495;49.922;7.966;2023-05-22T02:41:41;99560.31;;;16.79;97.19
70133;BME280;57495;49.922;7.966;2023-05-22T02:43:43;99561.75;;;16.75;99.46
70133;BME280;57495;49.922;7.966;2023-05-22T02:45:44;99555.47;;;16.75;97.10
70133;BME280;57495;49.922;7.966;2023-05-22T02:47:45;99561.63;;;16.84;97.18
70133;BME280;57495;49.922;7.966;2023-05-22T02:49:47;99556.34;;;16.75;100.00
70133;BME280;57495;49.922;7.966;2023-05-22T02:51:48;99557.28;;;16.83;100.00
70133;BME280;57495;49.922;7.966;2023-05-22T02:53:52;99551.56;;;16.77;100.00
70133;BME280;57495;49.922;7.966;2023-05-22T02:55:53;99550.81;;;16.84;100.00
70133;BME280;57495;49.922;7.966;2023-05-22T02:57:57;99553.78;;;16.89;100.00
70133;BME280;57495;49.922;7.966;2023-05-22T02:59:59;99552.84;;;16.81;100.00
70133;BME280;57495;49.922;7.966;2023-05-22T03:02:00;99560.31;;;16.79;100.00
70133;BME280;57495;49.922;7.966;2023-05-22T03:04:02;99551.97;;;16.74;100.00
70133;BME280;57495;49.922;7.966;2023-05-22T03:06:03;99549.25;;;16.74;100.00
70133;BME280;57495;49.922;7.966;2023-05-22T03:08:05;99549.78;;;16.63;99.22
70133;BME280;57495;49.922;7.966;2023-05-22T03:10:08;99547.28;;;16.61;100.00
70133;BME280;57495;49.922;7.966;2023-05-22T03:12:10;99546.50;;;16.68;100.00
70133;BME280;57495;49.922;7.966;2023-05-22T03:14:11;99555.63;;;16.67;100.00
70133;BME280;57495;49.922;7.966;2023-05-22T03:16:13;99555.56;;;16.60;99.74
70133;BME280;57495;49.922;7.966;2023-05-22T03:18:14;99546.38;;;16.54;100.00
70133;BME280;57495;49.922;7.966;2023-05-22T03:20:15;99555.38;;;16.61;100.00
70133;BME280;57495;49.922;7.966;2023-05-22T03:22:17;99551.06;;;16.67;100.00
70133;BME280;57495;49.922;7.966;2023-05-22T03:24:19;99555.25;;;16.70;100.00
70133;BME280;57495;49.922;7.966;2023-05-22T03:26:22;99550.69;;;16.70;100.00
70133;BME280;57495;49.922;7.966;2023-05-22T03:28:23;99551.50;;;16.71;100.00
70133;BME280;57495;49.922;7.966;2023-05-22T03:30:25;99553.13;;;16.65;100.00
70133;BME280;57495;49.922;7.966;2023-05-22T03:32:26;99559.78;;;16.69;100.00
70133;BME280;57495;49.922;7.966;2023-05-22T03:34:27;99551.97;;;16.74;100.00
70133;BME280;57495;49.922;7.966;2023-05-22T03:36:29;99546.72;;;16.66;100.00
70133;BME280;57495;49.922;7.966;2023-05-22T03:38:33;99554.25;;;16.49;100.00
70133;BME280;57495;49.922;7.966;2023-05-22T03:40:34;99560.47;;;16.50;100.00
70133;BME280;57495;49.922;7.966;2023-05-22T03:42:37;99557.06;;;16.19;100.00
70133;BME280;57495;49.922;7.966;2023-05-22T03:44:38;99564.19;;;16.27;100.00
70133;BME280;57495;49.922;7.966;2023-05-22T03:46:40;99559.03;;;16.32;100.00
70133;BME280;57495;49.922;7.966;2023-05-22T03:48:41;99564.06;;;16.35;100.00
70133;BME280;57495;49.922;7.966;2023-05-22T03:50:43;99563.28;;;16.20;100.00
70133;BME280;57495;49.922;7.966;2023-05-22T03:52:45;99557.28;;;16.24;100.00
70133;BME280;57495;49.922;7.966;2023-05-22T03:54:46;99566.03;;;16.27;100.00
70133;BME280;57495;49.922;7.966;2023-05-22T03:56:48;99557.47;;;16.23;100.00
70133;BME280;57495;49.922;7.966;2023-05-22T03:58:51;99561.84;;;16.24;100.00
70133;BME280;57495;49.922;7.966;2023-05-22T04:00:52;99561.94;;;16.31;100.00
70133;BME280;57495;49.922;7.966;2023-05-22T04:02:54;99562.78;;;16.31;100.00
70133;BME280;57495;49.922;7.966;2023-05-22T04:04:57;99567.25;;;16.24;100.00
70133;BME280;57495;49.922;7.966;2023-05-22T04:06:59;99560.53;;;16.35;100.00
70133;BME280;57495;49.922;7.966;2023-05-22T04:09:01;99570.22;;;16.29;100.00
70133;BME280;57495;49.922;7.966;2023-05-22T04:11:03;99574.72;;;16.22;100.00
70133;BME280;57495;49.922;7.966;2023-05-22T04:13:05;99568.63;;;16.35;100.00
70133;BME280;57495;49.922;7.966;2023-05-22T04:15:09;99575.63;;;16.29;100.00
70133;BME280;57495;49.922;7.966;2023-05-22T04:17:11;99573.44;;;16.39;100.00
70133;BME280;57495;49.922;7.966;2023-05-22T04:19:12;99570.09;;;16.37;100.00
70133;BME280;57495;49.922;7.966;2023-05-22T04:21:13;99571.97;;;16.37;100.00
70133;BME280;57495;49.922;7.966;2023-05-22T04:23:16;99568.53;;;16.28;100.00
70133;BME280;57495;49.922;7.966;2023-05-22T04:25:18;99577.53;;;16.35;100.00
70133;BME280;57495;49.922;7.966;2023-05-22T04:27:19;99592.81;;;16.28;100.00
70133;BME280;57495;49.922;7.966;2023-05-22T04:29:21;99582.94;;;16.35;100.00
70133;BME280;57495;49.922;7.966;2023-05-22T04:31:24;99577.72;;;16.34;100.00
70133;BME280;57495;49.922;7.966;2023-05-22T04:33:26;99583.22;;;16.40;100.00
70133;BME280;57495;49.922;7.966;2023-05-22T04:35:28;99576.06;;;16.33;100.00
70133;BME280;57495;49.922;7.966;2023-05-22T04:37:29;99584.16;;;16.33;100.00
70133;BME280;57495;49.922;7.966;2023-05-22T04:39:31;99588.66;;;16.47;100.00
70133;BME280;57495;49.922;7.966;2023-05-22T04:41:33;99583.47;;;16.46;100.00
70133;BME280;57495;49.922;7.966;2023-05-22T04:43:34;99591.81;;;16.51;100.00
70133;BME280;57495;49.922;7.966;2023-05-22T04:45:37;99594.41;;;16.59;100.00
70133;BME280;57495;49.922;7.966;2023-05-22T04:47:42;99602.50;;;16.59;100.00
70133;BME280;57495;49.922;7.966;2023-05-22T04:49:44;99595.50;;;16.65;100.00
70133;BME280;57495;49.922;7.966;2023-05-22T04:51:45;99599.28;;;16.70;100.00
70133;BME280;57495;49.922;7.966;2023-05-22T04:53:47;99590.16;;;16.71;100.00
70133;BME280;57495;49.922;7.966;2023-05-22T04:55:48;99599.28;;;16.70;100.00
70133;BME280;57495;49.922;7.966;2023-05-22T04:57:50;99592.72;;;16.79;100.00
70133;BME280;57495;49.922;7.966;2023-05-22T04:59:52;99594.47;;;16.87;100.00
70133;BME280;57495;49.922;7.966;2023-05-22T05:01:56;99597.00;;;16.89;100.00
70133;BME280;57495;49.922;7.966;2023-05-22T05:03:58;99592.69;;;16.94;100.00
70133;BME280;57495;49.922;7.966;2023-05-22T05:06:00;99595.19;;;16.96;100.00
70133;BME280;57495;49.922;7.966;2023-05-22T05:08:01;99594.13;;;16.97;100.00
70133;BME280;57495;49.922;7.966;2023-05-22T05:10:04;99590.22;;;16.99;100.00
70133;BME280;57495;49.922;7.966;2023-05-22T05:12:05;99598.00;;;17.09;100.00
70133;BME280;57495;49.922;7.966;2023-05-22T05:14:07;99598.06;;;17.16;100.00
70133;BME280;57495;49.922;7.966;2023-05-22T05:16:09;99597.19;;;17.15;100.00
70133;BME280;57495;49.922;7.966;2023-05-22T05:18:11;99598.53;;;17.26;100.00
70133;BME280;57495;49.922;7.966;2023-05-22T05:20:14;99594.66;;;17.35;100.00
70133;BME280;57495;49.922;7.966;2023-05-22T05:22:15;99595.97;;;17.46;100.00
70133;BME280;57495;49.922;7.966;2023-05-22T05:24:16;99597.41;;;17.42;100.00
70133;BME280;57495;49.922;7.966;2023-05-22T05:26:18;99602.41;;;17.45;100.00
70133;BME280;57495;49.922;7.966;2023-05-22T05:28:20;99592.69;;;17.51;100.00
70133;BME280;57495;49.922;7.966;2023-05-22T05:30:22;99593.91;;;17.48;100.00
70133;BME280;57495;49.922;7.966;2023-05-22T05:32:23;99594.16;;;17.53;100.00
70133;BME280;57495;49.922;7.966;2023-05-22T05:34:25;99593.53;;;17.58;100.00
70133;BME280;57495;49.922;7.966;2023-05-22T05:36:28;99597.56;;;17.69;100.00
70133;BME280;57495;49.922;7.966;2023-05-22T05:38:29;99595.91;;;17.68;100.00
70133;BME280;57495;49.922;7.966;2023-05-22T05:40:30;99605.09;;;17.73;100.00
70133;BME280;57495;49.922;7.966;2023-05-22T05:42:32;99607.06;;;17.86;100.00
70133;BME280;57495;49.922;7.966;2023-05-22T05:44:33;99603.03;;;17.82;100.00
70133;BME280;57495;49.922;7.966;2023-05-22T05:46:35;99600.19;;;17.90;100.00
70133;BME280;57495;49.922;7.966;2023-05-22T05:48:37;99601.06;;;17.98;100.00
70133;BME280;57495;49.922;7.966;2023-05-22T05:50:38;99607.50;;;17.96;100.00
70133;BME280;57495;49.922;7.966;2023-05-22T05:52:41;99606.78;;;17.81;100.00
70133;BME280;57495;49.922;7.966;2023-05-22T05:54:43;99609.53;;;17.88;100.00
70133;BME280;57495;49.922;7.966;2023-05-22T05:56:46;99615.47;;;17.70;100.00
70133;BME280;57495;49.922;7.966;2023-05-22T05:58:48;99613.09;;;17.88;100.00
70133;BME280;57495;49.922;7.966;2023-05-22T06:00:49;99609.63;;;18.01;100.00
70133;BME280;57495;49.922;7.966;2023-05-22T06:02:51;99616.53;;;18.17;100.00
70133;BME280;57495;49.922;7.966;2023-05-22T06:04:52;99614.09;;;18.29;100.00
70133;BME280;57495;49.922;7.966;2023-05-22T06:06:55;99621.63;;;18.40;100.00
70133;BME280;57495;49.922;7.966;2023-05-22T06:08:57;99622.06;;;18.44;100.00
70133;BME280;57495;49.922;7.966;2023-05-22T06:10:59;99616.66;;;18.57;100.00
70133;BME280;57495;49.922;7.966;2023-05-22T06:13:00;99615.63;;;18.65;100.00
70133;BME280;57495;49.922;7.966;2023-05-22T06:15:02;99613.78;;;18.72;100.00
70133;BME280;57495;49.922;7.966;2023-05-22T06:17:04;99618.81;;;18.82;100.00
70133;BME280;57495;49.922;7.966;2023-05-22T06:19:08;99616.34;;;18.93;100.00
70133;BME280;57495;49.922;7.966;2023-05-22T06:21:09;99613.41;;;19.02;100.00
70133;BME280;57495;49.922;7.966;2023-05-22T06:23:11;99618.00;;;19.01;100.00
70133;BME280;57495;49.922;7.966;2023-05-22T06:25:14;99619.28;;;19.12;100.00
70133;BME280;57495;49.922;7.966;2023-05-22T06:27:15;99618.44;;;19.18;100.00
70133;BME280;57495;49.922;7.966;2023-05-22T06:29:17;99614.03;;;19.24;99.85
70133;BME280;57495;49.922;7.966;2023-05-22T06:31:18;99627.16;;;19.13;100.00
70133;BME280;57495;49.922;7.966;2023-05-22T06:33:20;99615.72;;;19.18;100.00
70133;BME280;57495;49.922;7.966;2023-05-22T06:35:21;99625.94;;;19.36;100.00
70133;BME280;57495;49.922;7.966;2023-05-22T06:37:23;99613.78;;;19.59;100.00
70133;BME280;57495;49.922;7.966;2023-05-22T06:39:24;99617.13;;;19.74;99.53
70133;BME280;57495;49.922;7.966;2023-05-22T06:41:27;99618.97;;;19.80;96.84
70133;BME280;57495;49.922;7.966;2023-05-22T06:43:29;99621.84;;;19.99;99.51
70133;BME280;57495;49.922;7.966;2023-05-22T06:45:30;99621.22;;;20.03;98.48
70133;BME280;57495;49.922;7.966;2023-05-22T06:47:31;99617.41;;;20.18;97.26
70133;BME280;57495;49.922;7.966;2023-05-22T06:49:33;99627.38;;;20.31;95.82
70133;BME280;57495;49.922;7.966;2023-05-22T06:51:34;99622.34;;;20.27;94.04
70133;BME280;57495;49.922;7.966;2023-05-22T06:53:36;99623.97;;;20.42;94.56
70133;BME280;57495;49.922;7.966;2023-05-22T06:55:37;99617.66;;;20.48;95.59
70133;BME280;57495;49.922;7.966;2023-05-22T06:57:40;99624.50;;;20.57;95.17
70133;BME280;57495;49.922;7.966;2023-05-22T06:59:41;99616.63;;;20.49;94.82
70133;BME280;57495;49.922;7.966;2023-05-22T07:01:43;99622.88;;;20.50;94.15
70133;BME280;57495;49.922;7.966;2023-05-22T07:03:44;99625.09;;;20.59;93.96
70133;BME280;57495;49.922;7.966;2023-05-22T07:05:46;99622.59;;;20.58;93.60
70133;BME280;57495;49.922;7.966;2023-05-22T07:07:47;99625.50;;;20.70;91.78
70133;BME280;57495;49.922;7.966;2023-05-22T07:09:48;99623.28;;;20.92;92.09
70133;BME280;57495;49.922;7.966;2023-05-22T07:11:50;99621.56;;;20.97;88.82
70133;BME280;57495;49.922;7.966;2023-05-22T07:13:53;99618.00;;;21.22;88.13
70133;BME280;57495;49.922;7.966;2023-05-22T07:15:54;99622.53;;;21.28;87.84
70133;BME280;57495;49.922;7.966;2023-05-22T07:17:55;99617.88;;;21.35;87.36
70133;BME280;57495;49.922;7.966;2023-05-22T07:19:57;99618.94;;;21.34;86.72
70133;BME280;57495;49.922;7.966;2023-05-22T07:21:58;99618.63;;;21.49;86.90
70133;BME280;57495;49.922;7.966;2023-05-22T07:24:00;99619.31;;;21.63;87.01
70133;BME280;57495;49.922;7.966;2023-05-22T07:26:07;99619.16;;;21.76;86.06
70133;BME280;57495;49.922;7.966;2023-05-22T07:28:08;99619.63;;;21.73;85.97
70133;BME280;57495;49.922;7.966;2023-05-22T07:30:12;99625.53;;;21.70;83.96
70133;BME280;57495;49.922;7.966;2023-05-22T07:32:14;99621.97;;;21.88;84.73
70133;BME280;57495;49.922;7.966;2023-05-22T07:34:15;99625.00;;;21.98;83.71
70133;BME280;57495;49.922;7.966;2023-05-22T07:36:16;99629.63;;;21.98;83.82
70133;BME280;57495;49.922;7.966;2023-05-22T07:38:18;99623.19;;;21.92;83.07
70133;BME280;57495;49.922;7.966;2023-05-22T07:40:20;99622.19;;;22.05;84.34
70133;BME280;57495;49.922;7.966;2023-05-22T07:42:21;99622.25;;;22.17;81.89
70133;BME280;57495;49.922;7.966;2023-05-22T07:44:23;99619.31;;;22.18;81.46
70133;BME280;57495;49.922;7.966;2023-05-22T07:46:25;99622.41;;;22.22;80.28
70133;BME280;57495;49.922;7.966;2023-05-22T07:48:27;99624.31;;;22.03;79.59
70133;BME280;57495;49.922;7.966;2023-05-22T07:50:28;99620.69;;;22.28;81.28
70133;BME280;57495;49.922;7.966;2023-05-22T07:52:32;99622.63;;;22.39;81.26
70133;BME280;57495;49.922;7.966;2023-05-22T07:54:33;99621.75;;;22.27;81.09
70133;BME280;57495;49.922;7.966;2023-05-22T07:56:35;99629.78;;;22.52;80.24
70133;BME280;57495;49.922;7.966;2023-05-22T07:58:39;99626.06;;;22.65;79.52
70133;BME280;57495;49.922;7.966;2023-05-22T08:00:41;99621.34;;;22.72;79.52
70133;BME280;57495;49.922;7.966;2023-05-22T08:02:43;99621.72;;;22.75;78.58
70133;BME280;57495;49.922;7.966;2023-05-22T08:04:45;99626.09;;;22.76;79.19
70133;BME280;57495;49.922;7.966;2023-05-22T08:06:47;99633.97;;;22.96;78.85
70133;BME280;57495;49.922;7.966;2023-05-22T08:08:48;99623.81;;;23.04;78.17
70133;BME280;57495;49.922;7.966;2023-05-22T08:10:52;99627.09;;;22.94;76.17
70133;BME280;57495;49.922;7.966;2023-05-22T08:12:53;99628.00;;;23.06;76.31
70133;BME280;57495;49.922;7.966;2023-05-22T08:14:55;99623.16;;;22.90;75.82
70133;BME280;57495;49.922;7.966;2023-05-22T08:16:56;99621.00;;;23.22;76.75
70133;BME280;57495;49.922;7.966;2023-05-22T08:19:00;99620.53;;;23.49;76.52
70133;BME280;57495;49.922;7.966;2023-05-22T08:21:02;99622.78;;;23.64;77.56
70133;BME280;57495;49.922;7.966;2023-05-22T08:23:03;99620.63;;;23.54;73.27
70133;BME280;57495;49.922;7.966;2023-05-22T08:25:05;99625.50;;;23.52;74.29
70133;BME280;57495;49.922;7.966;2023-05-22T08:27:06;99614.13;;;23.31;73.40
70133;BME280;57495;49.922;7.966;2023-05-22T08:29:08;99620.66;;;23.42;73.78
70133;BME280;57495;49.922;7.966;2023-05-22T08:31:09;99616.38;;;23.46;74.20
70133;BME280;57495;49.922;7.966;2023-05-22T08:33:11;99618.38;;;23.74;74.47
70133;BME280;57495;49.922;7.966;2023-05-22T08:35:14;99619.34;;;23.92;73.78
70133;BME280;57495;49.922;7.966;2023-05-22T08:37:15;99629.16;;;24.05;73.14
70133;BME280;57495;49.922;7.966;2023-05-22T08:39:17;99621.28;;;24.20;71.90
70133;BME280;57495;49.922;7.966;2023-05-22T08:41:19;99625.91;;;24.20;70.58
70133;BME280;57495;49.922;7.966;2023-05-22T08:43:21;99617.53;;;24.38;71.79
70133;BME280;57495;49.922;7.966;2023-05-22T08:45:22;99615.16;;;24.42;71.43
70133;BME280;57495;49.922;7.966;2023-05-22T08:47:25;99623.69;;;24.45;71.01
70133;BME280;57495;49.922;7.966;2023-05-22T08:49:27;99620.69;;;24.59;71.95
70133;BME280;57495;49.922;7.966;2023-05-22T08:51:32;99616.34;;;24.75;70.03
70133;BME280;57495;49.922;7.966;2023-05-22T08:53:35;99616.19;;;24.98;71.48
70133;BME280;57495;49.922;7.966;2023-05-22T08:55:37;99611.31;;;25.17;69.68
70133;BME280;57495;49.922;7.966;2023-05-22T08:57:39;99613.97;;;25.29;70.28
70133;BME280;57495;49.922;7.966;2023-05-22T08:59:42;99613.31;;;25.39;67.81
70133;BME280;57495;49.922;7.966;2023-05-22T09:01:46;99615.88;;;25.45;68.80
70133;BME280;57495;49.922;7.966;2023-05-22T09:03:48;99611.59;;;25.72;67.21
70133;BME280;57495;49.922;7.966;2023-05-22T09:05:50;99612.81;;;25.81;67.04
70133;BME280;57495;49.922;7.966;2023-05-22T09:07:53;99611.44;;;26.22;67.68
70133;BME280;57495;49.922;7.966;2023-05-22T09:09:54;99611.44;;;26.22;67.03
70133;BME280;57495;49.922;7.966;2023-05-22T09:11:56;99610.78;;;26.37;63.20
70133;BME280;57495;49.922;7.966;2023-05-22T09:14:05;99607.25;;;26.64;67.97
70133;BME280;57495;49.922;7.966;2023-05-22T09:16:09;99615.91;;;26.56;65.32
70133;BME280;57495;49.922;7.966;2023-05-22T09:18:10;99616.25;;;26.37;64.62
70133;BME280;57495;49.922;7.966;2023-05-22T09:20:12;99620.81;;;26.76;63.76
70133;BME280;57495;49.922;7.966;2023-05-22T09:22:14;99624.47;;;26.37;62.80
70133;BME280;57495;49.922;7.966;2023-05-22T09:24:18;99613.44;;;26.76;60.17
70133;BME280;57495;49.922;7.966;2023-05-22T09:26:19;99609.25;;;27.01;64.42
70133;BME280;57495;49.922;7.966;2023-05-22T09:28:21;99611.28;;;27.16;63.56
70133;BME280;57495;49.922;7.966;2023-05-22T09:30:23;99611.38;;;27.26;61.39
70133;BME280;57495;49.922;7.966;2023-05-22T09:32:28;99603.44;;;27.30;62.37
70133;BME280;57495;49.922;7.966;2023-05-22T09:34:30;99605.28;;;27.19;62.06
70133;BME280;57495;49.922;7.966;2023-05-22T09:36:32;99611.31;;;26.89;58.94
70133;BME280;57495;49.922;7.966;2023-05-22T09:38:33;99610.28;;;26.40;60.23
70133;BME280;57495;49.922;7.966;2023-05-22T09:40:38;99606.75;;;26.99;60.38
70133;BME280;57495;49.922;7.966;2023-05-22T09:42:42;99608.13;;;26.97;61.12
70133;BME280;57495;49.922;7.966;2023-05-22T09:44:47;99608.63;;;27.69;63.19
70133;BME280;57495;49.922;7.966;2023-05-22T09:46:49;99602.63;;;27.72;56.00
70133;BME280;57495;49.922;7.966;2023-05-22T09:48:50;99611.97;;;27.71;58.22
70133;BME280;57495;49.922;7.966;2023-05-22T09:50:52;99603.78;;;27.86;56.68
70133;BME280;57495;49.922;7.966;2023-05-22T09:52:55;99605.75;;;27.91;57.47
70133;BME280;57495;49.922;7.966;2023-05-22T09:55:01;99612.81;;;28.34;58.02
70133;BME280;57495;49.922;7.966;2023-05-22T09:57:09;99610.63;;;28.52;57.37
70133;BME280;57495;49.922;7.966;2023-05-22T09:59:16;99603.28;;;28.68;57.61
70133;BME280;57495;49.922;7.966;2023-05-22T10:01:21;99604.50;;;28.24;56.35
70133;BME280;57495;49.922;7.966;2023-05-22T10:03:25;99606.72;;;28.22;59.58
70133;BME280;57495;49.922;7.966;2023-05-22T10:05:30;99615.31;;;28.41;59.67
70133;BME280;57495;49.922;7.966;2023-05-22T10:07:35;99609.53;;;28.48;56.96
70133;BME280;57495;49.922;7.966;2023-05-22T10:09:37;99613.16;;;28.53;54.78
70133;BME280;57495;49.922;7.966;2023-05-22T10:11:40;99604.94;;;28.69;55.70
70133;BME280;57495;49.922;7.966;2023-05-22T10:13:44;99603.44;;;28.30;54.92
70133;BME280;57495;49.922;7.966;2023-05-22T10:15:48;99603.50;;;28.51;57.28
70133;BME280;57495;49.922;7.966;2023-05-22T10:17:49;99601.38;;;28.84;56.47
70133;BME280;57495;49.922;7.966;2023-05-22T10:19:53;99594.50;;;29.27;55.58
70133;BME280;57495;49.922;7.966;2023-05-22T10:21:55;99595.63;;;29.26;52.75
70133;BME280;57495;49.922;7.966;2023-05-22T10:24:00;99599.44;;;28.79;54.38
70133;BME280;57495;49.922;7.966;2023-05-22T10:26:02;99595.31;;;28.97;54.01
70133;BME280;57495;49.922;7.966;2023-05-22T10:28:04;99594.22;;;29.24;56.75
70133;BME280;57495;49.922;7.966;2023-05-22T10:30:18;99593.13;;;29.20;52.89
70133;BME280;57495;49.922;7.966;2023-05-22T10:32:26;99589.00;;;29.22;52.43
70133;BME280;57495;49.922;7.966;2023-05-22T10:34:39;99583.78;;;29.21;53.72
70133;BME280;57495;49.922;7.966;2023-05-22T10:36:52;99583.72;;;29.52;53.22
70133;BME280;57495;49.922;7.966;2023-05-22T10:39:05;99570.72;;;29.73;54.48
70133;BME280;57495;49.922;7.966;2023-05-22T10:41:11;99578.78;;;29.13;52.63
70133;BME280;57495;49.922;7.966;2023-05-22T10:43:13;99585.13;;;28.62;51.94
70133;BME280;57495;49.922;7.966;2023-05-22T10:45:16;99581.53;;;28.87;53.42
70133;BME280;57495;49.922;7.966;2023-05-22T10:47:18;99578.28;;;29.21;54.70
70133;BME280;57495;49.922;7.966;2023-05-22T10:49:20;99577.16;;;29.11;52.40